sensor_id;sensor_type;location;lat;lon;timestamp;P1;durP1;ratioP1;P2;durP2;ratioP2
76393;SDS011;65216;51.090;-115.352;2023-05-10T00:00:45;18.90;;;2.80;;
76393;SDS011;65216;51.090;-115.352;2023-05-10T00:03:12;24.50;;;2.90;;
76393;SDS011;65216;51.090;-115.352;2023-05-10T00:05:42;23.70;;;3.00;;
76393;SDS011;65216;51.090;-115.352;2023-05-10T00:08:09;24.60;;;3.30;;
76393;SDS011;65216;51.090;-115.352;2023-05-10T00:10:38;22.10;;;3.20;;
76393;SDS011;65216;51.090;-115.352;2023-05-10T00:13:08;24.00;;;3.30;;
76393;SDS011;65216;51.090;-115.352;2023-05-10T00:15:35;21.60;;;3.20;;
76393;SDS011;65216;51.090;-115.352;2023-05-10T00:18:02;22.00;;;3.30;;
76393;SDS011;65216;51.090;-115.352;2023-05-10T00:20:29;22.20;;;3.40;;
76393;SDS011;65216;51.090;-115.352;2023-05-10T00:22:59;28.70;;;3.40;;
76393;SDS011;65216;51.090;-115.352;2023-05-10T00:25:27;24.70;;;3.30;;
76393;SDS011;65216;51.090;-115.352;2023-05-10T00:27:57;28.50;;;3.70;;
76393;SDS011;65216;51.090;-115.352;2023-05-10T00:30:27;23.50;;;3.00;;
76393;SDS011;65216;51.090;-115.352;2023-05-10T00:32:54;22.80;;;3.50;;
76393;SDS011;65216;51.090;-115.352;2023-05-10T00:35:21;30.00;;;3.20;;
76393;SDS011;65216;51.090;-115.352;2023-05-10T00:37:49;18.00;;;2.70;;
76393;SDS011;65216;51.090;-115.352;2023-05-10T00:40:16;21.90;;;2.90;;
76393;SDS011;65216;51.090;-115.352;2023-05-10T00:42:46;26.60;;;3.00;;
76393;SDS011;65216;51.090;-115.352;2023-05-10T00:45:13;25.00;;;3.10;;
76393;SDS011;65216;51.090;-115.352;2023-05-10T00:47:43;29.20;;;3.40;;
76393;SDS011;65216;51.090;-115.352;2023-05-10T00:50:10;25.00;;;3.00;;
76393;SDS011;65216;51.090;-115.352;2023-05-10T00:52:37;19.30;;;2.80;;
76393;SDS011;65216;51.090;-115.352;2023-05-10T00:55:06;23.20;;;3.80;;
76393;SDS011;65216;51.090;-115.352;2023-05-10T00:57:36;21.90;;;2.80;;
76393;SDS011;65216;51.090;-115.352;2023-05-10T01:00:06;31.90;;;4.10;;
76393;SDS011;65216;51.090;-115.352;2023-05-10T01:02:35;27.30;;;3.40;;
76393;SDS011;65216;51.090;-115.352;2023-05-10T01:05:06;31.70;;;3.20;;
76393;SDS011;65216;51.090;-115.352;2023-05-10T01:07:33;24.60;;;2.90;;
76393;SDS011;65216;51.090;-115.352;2023-05-10T01:10:10;20.30;;;2.80;;
76393;SDS011;65216;51.090;-115.352;2023-05-10T01:12:39;26.00;;;3.40;;
76393;SDS011;65216;51.090;-115.352;2023-05-10T01:15:09;17.40;;;2.90;;
76393;SDS011;65216;51.090;-115.352;2023-05-10T01:17:39;20.10;;;3.00;;
76393;SDS011;65216;51.090;-115.352;2023-05-10T01:20:08;19.30;;;3.40;;
76393;SDS011;65216;51.090;-115.352;2023-05-10T01:23:09;23.50;;;3.00;;
76393;SDS011;65216;51.090;-115.352;2023-05-10T01:40:50;28.20;;;3.70;;
76393;SDS011;65216;51.090;-115.352;2023-05-10T01:43:33;22.80;;;2.70;;
76393;SDS011;65216;51.090;-115.352;2023-05-10T01:46:15;22.00;;;3.20;;
76393;SDS011;65216;51.090;-115.352;2023-05-10T01:48:48;27.10;;;3.20;;
76393;SDS011;65216;51.090;-115.352;2023-05-10T01:51:25;22.80;;;3.20;;
76393;SDS011;65216;51.090;-115.352;2023-05-10T01:54:02;19.70;;;2.90;;
76393;SDS011;65216;51.090;-115.352;2023-05-10T01:56:33;20.10;;;3.00;;
76393;SDS011;65216;51.090;-115.352;2023-05-10T01:59:08;16.80;;;2.70;;
76393;SDS011;65216;51.090;-115.352;2023-05-10T02:01:40;14.10;;;2.80;;
76393;SDS011;65216;51.090;-115.352;2023-05-10T02:04:09;17.40;;;2.70;;
76393;SDS011;65216;51.090;-115.352;2023-05-10T02:06:46;27.40;;;2.90;;
76393;SDS011;65216;51.090;-115.352;2023-05-10T02:09:14;18.10;;;2.70;;
76393;SDS011;65216;51.090;-115.352;2023-05-10T02:11:48;21.10;;;2.50;;
76393;SDS011;65216;51.090;-115.352;2023-05-10T02:14:16;16.00;;;2.60;;
76393;SDS011;65216;51.090;-115.352;2023-05-10T02:16:45;19.10;;;2.60;;
76393;SDS011;65216;51.090;-115.352;2023-05-10T02:19:13;18.80;;;2.50;;
76393;SDS011;65216;51.090;-115.352;2023-05-10T02:21:41;20.20;;;2.80;;
76393;SDS011;65216;51.090;-115.352;2023-05-10T02:24:11;14.20;;;2.60;;
76393;SDS011;65216;51.090;-115.352;2023-05-10T02:26:42;25.10;;;2.70;;
76393;SDS011;65216;51.090;-115.352;2023-05-10T02:29:17;17.40;;;2.60;;
76393;SDS011;65216;51.090;-115.352;2023-05-10T02:31:46;18.80;;;2.70;;
76393;SDS011;65216;51.090;-115.352;2023-05-10T02:34:13;13.90;;;2.40;;
76393;SDS011;65216;51.090;-115.352;2023-05-10T02:36:41;15.50;;;2.70;;
76393;SDS011;65216;51.090;-115.352;2023-05-10T02:39:10;17.70;;;2.30;;
76393;SDS011;65216;51.090;-115.352;2023-05-10T02:41:43;15.10;;;2.40;;
76393;SDS011;65216;51.090;-115.352;2023-05-10T02:44:19;17.20;;;2.40;;
76393;SDS011;65216;51.090;-115.352;2023-05-10T02:46:48;19.30;;;2.70;;
76393;SDS011;65216;51.090;-115.352;2023-05-10T02:49:15;14.90;;;2.30;;
76393;SDS011;65216;51.090;-115.352;2023-05-10T02:51:57;16.00;;;2.90;;
76393;SDS011;65216;51.090;-115.352;2023-05-10T02:54:32;18.20;;;2.60;;
76393;SDS011;65216;51.090;-115.352;2023-05-10T02:57:04;17.00;;;2.30;;
76393;SDS011;65216;51.090;-115.352;2023-05-10T02:59:35;10.50;;;2.40;;
76393;SDS011;65216;51.090;-115.352;2023-05-10T03:02:03;12.30;;;2.50;;
76393;SDS011;65216;51.090;-115.352;2023-05-10T03:04:31;17.90;;;2.30;;
76393;SDS011;65216;51.090;-115.352;2023-05-10T03:07:01;16.60;;;2.90;;
76393;SDS011;65216;51.090;-115.352;2023-05-10T03:09:29;15.10;;;2.40;;
76393;SDS011;65216;51.090;-115.352;2023-05-10T03:22:25;13.10;;;2.50;;
76393;SDS011;65216;51.090;-115.352;2023-05-10T03:25:01;14.10;;;1.90;;
76393;SDS011;65216;51.090;-115.352;2023-05-10T03:27:36;11.30;;;2.00;;
76393;SDS011;65216;51.090;-115.352;2023-05-10T03:30:11;8.80;;;2.20;;
76393;SDS011;65216;51.090;-115.352;2023-05-10T03:32:38;6.50;;;2.20;;
76393;SDS011;65216;51.090;-115.352;2023-05-10T03:35:12;12.60;;;2.10;;
76393;SDS011;65216;51.090;-115.352;2023-05-10T03:37:46;7.50;;;2.00;;
76393;SDS011;65216;51.090;-115.352;2023-05-10T03:40:25;8.70;;;2.10;;
76393;SDS011;65216;51.090;-115.352;2023-05-10T03:42:55;10.40;;;2.10;;
76393;SDS011;65216;51.090;-115.352;2023-05-10T03:45:25;11.30;;;2.30;;
76393;SDS011;65216;51.090;-115.352;2023-05-10T03:47:55;8.10;;;2.20;;
76393;SDS011;65216;51.090;-115.352;2023-05-10T03:50:26;6.80;;;1.80;;
76393;SDS011;65216;51.090;-115.352;2023-05-10T03:52:52;10.70;;;2.30;;
76393;SDS011;65216;51.090;-115.352;2023-05-10T03:55:19;9.80;;;2.10;;
76393;SDS011;65216;51.090;-115.352;2023-05-10T03:57:49;11.10;;;1.90;;
76393;SDS011;65216;51.090;-115.352;2023-05-10T04:00:19;9.60;;;2.20;;
76393;SDS011;65216;51.090;-115.352;2023-05-10T04:02:46;11.30;;;2.10;;
76393;SDS011;65216;51.090;-115.352;2023-05-10T04:05:16;6.90;;;2.00;;
76393;SDS011;65216;51.090;-115.352;2023-05-10T04:07:46;7.70;;;2.10;;
76393;SDS011;65216;51.090;-115.352;2023-05-10T04:10:15;4.70;;;1.90;;
76393;SDS011;65216;51.090;-115.352;2023-05-10T04:12:42;8.20;;;2.10;;
76393;SDS011;65216;51.090;-115.352;2023-05-10T04:15:09;5.30;;;1.80;;
76393;SDS011;65216;51.090;-115.352;2023-05-10T04:17:36;6.80;;;1.90;;
76393;SDS011;65216;51.090;-115.352;2023-05-10T04:20:04;4.00;;;1.60;;
76393;SDS011;65216;51.090;-115.352;2023-05-10T04:22:32;4.00;;;1.80;;
76393;SDS011;65216;51.090;-115.352;2023-05-10T04:25:02;4.20;;;1.50;;
76393;SDS011;65216;51.090;-115.352;2023-05-10T04:27:30;4.80;;;1.50;;
76393;SDS011;65216;51.090;-115.352;2023-05-10T04:29:57;3.90;;;1.50;;
76393;SDS011;65216;51.090;-115.352;2023-05-10T04:32:27;2.60;;;1.30;;
76393;SDS011;65216;51.090;-115.352;2023-05-10T04:34:55;4.80;;;1.40;;
76393;SDS011;65216;51.090;-115.352;2023-05-10T04:37:21;3.30;;;1.30;;
76393;SDS011;65216;51.090;-115.352;2023-05-10T04:39:51;3.00;;;1.20;;
76393;SDS011;65216;51.090;-115.352;2023-05-10T04:42:18;3.90;;;1.30;;
76393;SDS011;65216;51.090;-115.352;2023-05-10T04:44:45;2.90;;;1.30;;
76393;SDS011;65216;51.090;-115.352;2023-05-10T04:47:12;2.30;;;1.20;;
76393;SDS011;65216;51.090;-115.352;2023-05-10T04:49:42;2.40;;;1.00;;
76393;SDS011;65216;51.090;-115.352;2023-05-10T04:52:09;2.00;;;0.90;;
76393;SDS011;65216;51.090;-115.352;2023-05-10T04:54:35;3.60;;;1.10;;
76393;SDS011;65216;51.090;-115.352;2023-05-10T04:57:02;2.70;;;0.90;;
76393;SDS011;65216;51.090;-115.352;2023-05-10T04:59:32;2.50;;;1.20;;
76393;SDS011;65216;51.090;-115.352;2023-05-10T05:02:01;2.90;;;1.00;;
76393;SDS011;65216;51.090;-115.352;2023-05-10T05:04:30;2.40;;;1.00;;
76393;SDS011;65216;51.090;-115.352;2023-05-10T05:06:57;2.60;;;1.10;;
76393;SDS011;65216;51.090;-115.352;2023-05-10T05:09:27;4.00;;;0.90;;
76393;SDS011;65216;51.090;-115.352;2023-05-10T05:11:54;2.30;;;0.90;;
76393;SDS011;65216;51.090;-115.352;2023-05-10T05:14:21;1.80;;;0.70;;
76393;SDS011;65216;51.090;-115.352;2023-05-10T05:16:51;1.20;;;0.60;;
76393;SDS011;65216;51.090;-115.352;2023-05-10T05:19:18;1.90;;;0.90;;
76393;SDS011;65216;51.090;-115.352;2023-05-10T05:21:45;1.70;;;0.80;;
76393;SDS011;65216;51.090;-115.352;2023-05-10T05:24:16;2.40;;;1.00;;
76393;SDS011;65216;51.090;-115.352;2023-05-10T05:26:43;1.90;;;0.80;;
76393;SDS011;65216;51.090;-115.352;2023-05-10T05:29:10;1.80;;;0.70;;
76393;SDS011;65216;51.090;-115.352;2023-05-10T05:31:36;1.60;;;0.80;;
76393;SDS011;65216;51.090;-115.352;2023-05-10T05:34:04;2.10;;;1.00;;
76393;SDS011;65216;51.090;-115.352;2023-05-10T05:36:31;1.70;;;0.70;;
76393;SDS011;65216;51.090;-115.352;2023-05-10T05:38:58;2.50;;;1.00;;
76393;SDS011;65216;51.090;-115.352;2023-05-10T05:41:25;1.50;;;0.80;;
76393;SDS011;65216;51.090;-115.352;2023-05-10T05:43:52;1.60;;;0.80;;
76393;SDS011;65216;51.090;-115.352;2023-05-10T05:46:19;1.10;;;0.70;;
76393;SDS011;65216;51.090;-115.352;2023-05-10T05:48:46;2.10;;;1.00;;
76393;SDS011;65216;51.090;-115.352;2023-05-10T05:51:13;1.50;;;0.80;;
76393;SDS011;65216;51.090;-115.352;2023-05-10T05:53:40;2.10;;;0.80;;
76393;SDS011;65216;51.090;-115.352;2023-05-10T05:56:07;2.30;;;0.80;;
76393;SDS011;65216;51.090;-115.352;2023-05-10T05:58:35;1.20;;;0.70;;
76393;SDS011;65216;51.090;-115.352;2023-05-10T06:01:02;1.90;;;0.90;;
76393;SDS011;65216;51.090;-115.352;2023-05-10T06:03:29;2.10;;;0.80;;
76393;SDS011;65216;51.090;-115.352;2023-05-10T06:05:56;2.60;;;0.70;;
76393;SDS011;65216;51.090;-115.352;2023-05-10T06:08:26;2.10;;;0.80;;
76393;SDS011;65216;51.090;-115.352;2023-05-10T06:10:53;3.00;;;0.90;;
76393;SDS011;65216;51.090;-115.352;2023-05-10T06:13:20;2.20;;;1.00;;
76393;SDS011;65216;51.090;-115.352;2023-05-10T06:15:47;2.20;;;0.90;;
76393;SDS011;65216;51.090;-115.352;2023-05-10T06:18:14;1.70;;;0.70;;
76393;SDS011;65216;51.090;-115.352;2023-05-10T06:20:41;4.00;;;1.00;;
76393;SDS011;65216;51.090;-115.352;2023-05-10T06:23:08;2.70;;;0.90;;
76393;SDS011;65216;51.090;-115.352;2023-05-10T06:25:35;2.80;;;0.90;;
76393;SDS011;65216;51.090;-115.352;2023-05-10T06:28:02;2.70;;;1.00;;
76393;SDS011;65216;51.090;-115.352;2023-05-10T06:30:29;2.50;;;1.10;;
76393;SDS011;65216;51.090;-115.352;2023-05-10T06:32:56;2.70;;;0.90;;
76393;SDS011;65216;51.090;-115.352;2023-05-10T06:35:23;2.40;;;0.90;;
76393;SDS011;65216;51.090;-115.352;2023-05-10T06:37:50;3.10;;;1.00;;
76393;SDS011;65216;51.090;-115.352;2023-05-10T06:40:20;2.00;;;0.90;;
76393;SDS011;65216;51.090;-115.352;2023-05-10T06:42:47;2.10;;;0.90;;
76393;SDS011;65216;51.090;-115.352;2023-05-10T06:45:15;2.70;;;0.90;;
76393;SDS011;65216;51.090;-115.352;2023-05-10T06:47:42;2.60;;;1.10;;
76393;SDS011;65216;51.090;-115.352;2023-05-10T06:50:12;1.60;;;0.90;;
76393;SDS011;65216;51.090;-115.352;2023-05-10T06:52:39;2.80;;;1.10;;
76393;SDS011;65216;51.090;-115.352;2023-05-10T06:55:06;2.80;;;1.30;;
76393;SDS011;65216;51.090;-115.352;2023-05-10T06:57:34;1.90;;;0.90;;
76393;SDS011;65216;51.090;-115.352;2023-05-10T07:00:05;2.80;;;1.20;;
76393;SDS011;65216;51.090;-115.352;2023-05-10T07:02:35;2.70;;;1.10;;
76393;SDS011;65216;51.090;-115.352;2023-05-10T07:05:02;2.10;;;1.00;;
76393;SDS011;65216;51.090;-115.352;2023-05-10T07:07:30;1.90;;;0.90;;
76393;SDS011;65216;51.090;-115.352;2023-05-10T07:09:57;2.00;;;0.90;;
76393;SDS011;65216;51.090;-115.352;2023-05-10T07:12:25;2.10;;;1.00;;
76393;SDS011;65216;51.090;-115.352;2023-05-10T07:14:54;2.90;;;1.10;;
76393;SDS011;65216;51.090;-115.352;2023-05-10T07:17:21;3.20;;;1.00;;
76393;SDS011;65216;51.090;-115.352;2023-05-10T07:19:48;2.80;;;1.20;;
76393;SDS011;65216;51.090;-115.352;2023-05-10T07:22:15;2.90;;;1.20;;
76393;SDS011;65216;51.090;-115.352;2023-05-10T07:24:43;3.80;;;1.10;;
76393;SDS011;65216;51.090;-115.352;2023-05-10T07:27:10;2.70;;;1.10;;
76393;SDS011;65216;51.090;-115.352;2023-05-10T07:29:37;2.20;;;1.20;;
76393;SDS011;65216;51.090;-115.352;2023-05-10T07:32:08;2.60;;;1.10;;
76393;SDS011;65216;51.090;-115.352;2023-05-10T07:34:37;2.30;;;0.90;;
76393;SDS011;65216;51.090;-115.352;2023-05-10T07:37:05;2.30;;;1.10;;
76393;SDS011;65216;51.090;-115.352;2023-05-10T07:39:32;1.90;;;0.90;;
76393;SDS011;65216;51.090;-115.352;2023-05-10T07:42:02;2.80;;;1.10;;
76393;SDS011;65216;51.090;-115.352;2023-05-10T07:44:29;3.00;;;1.10;;
76393;SDS011;65216;51.090;-115.352;2023-05-10T07:46:58;3.40;;;1.30;;
76393;SDS011;65216;51.090;-115.352;2023-05-10T07:49:26;2.90;;;1.20;;
76393;SDS011;65216;51.090;-115.352;2023-05-10T07:51:53;3.60;;;1.20;;
76393;SDS011;65216;51.090;-115.352;2023-05-10T07:54:23;2.30;;;1.00;;
76393;SDS011;65216;51.090;-115.352;2023-05-10T07:56:51;2.00;;;1.10;;
76393;SDS011;65216;51.090;-115.352;2023-05-10T07:59:21;1.80;;;1.00;;
76393;SDS011;65216;51.090;-115.352;2023-05-10T08:01:48;2.80;;;0.90;;
76393;SDS011;65216;51.090;-115.352;2023-05-10T08:04:15;3.00;;;1.10;;
76393;SDS011;65216;51.090;-115.352;2023-05-10T08:06:42;2.30;;;1.00;;
76393;SDS011;65216;51.090;-115.352;2023-05-10T08:09:09;3.00;;;0.90;;
76393;SDS011;65216;51.090;-115.352;2023-05-10T08:11:36;5.80;;;1.30;;
76393;SDS011;65216;51.090;-115.352;2023-05-10T08:14:03;3.00;;;0.90;;
76393;SDS011;65216;51.090;-115.352;2023-05-10T08:16:34;3.90;;;1.10;;
76393;SDS011;65216;51.090;-115.352;2023-05-10T08:19:00;2.70;;;1.20;;
76393;SDS011;65216;51.090;-115.352;2023-05-10T08:21:27;2.50;;;1.00;;
76393;SDS011;65216;51.090;-115.352;2023-05-10T08:23:55;2.30;;;1.10;;
76393;SDS011;65216;51.090;-115.352;2023-05-10T08:26:24;2.90;;;1.10;;
76393;SDS011;65216;51.090;-115.352;2023-05-10T08:28:52;3.10;;;1.20;;
76393;SDS011;65216;51.090;-115.352;2023-05-10T08:31:19;3.00;;;1.10;;
76393;SDS011;65216;51.090;-115.352;2023-05-10T08:33:46;4.80;;;1.10;;
76393;SDS011;65216;51.090;-115.352;2023-05-10T08:36:13;4.90;;;1.10;;
76393;SDS011;65216;51.090;-115.352;2023-05-10T08:38:49;3.70;;;1.20;;
76393;SDS011;65216;51.090;-115.352;2023-05-10T08:41:20;5.20;;;1.30;;
76393;SDS011;65216;51.090;-115.352;2023-05-10T08:43:48;2.40;;;1.00;;
76393;SDS011;65216;51.090;-115.352;2023-05-10T08:46:18;3.40;;;1.20;;
76393;SDS011;65216;51.090;-115.352;2023-05-10T08:48:48;3.00;;;1.20;;
76393;SDS011;65216;51.090;-115.352;2023-05-10T08:51:24;3.00;;;1.00;;
76393;SDS011;65216;51.090;-115.352;2023-05-10T08:53:53;2.50;;;0.90;;
76393;SDS011;65216;51.090;-115.352;2023-05-10T08:56:21;3.90;;;1.00;;
76393;SDS011;65216;51.090;-115.352;2023-05-10T08:58:48;2.90;;;1.20;;
76393;SDS011;65216;51.090;-115.352;2023-05-10T09:01:16;3.20;;;1.10;;
76393;SDS011;65216;51.090;-115.352;2023-05-10T09:03:46;3.60;;;0.90;;
76393;SDS011;65216;51.090;-115.352;2023-05-10T09:06:17;3.10;;;1.20;;
76393;SDS011;65216;51.090;-115.352;2023-05-10T09:08:45;1.90;;;0.90;;
76393;SDS011;65216;51.090;-115.352;2023-05-10T09:11:13;2.80;;;1.00;;
76393;SDS011;65216;51.090;-115.352;2023-05-10T09:13:40;2.30;;;0.90;;
76393;SDS011;65216;51.090;-115.352;2023-05-10T09:16:10;2.40;;;1.20;;
76393;SDS011;65216;51.090;-115.352;2023-05-10T09:18:37;3.70;;;1.10;;
76393;SDS011;65216;51.090;-115.352;2023-05-10T09:21:03;2.50;;;0.90;;
76393;SDS011;65216;51.090;-115.352;2023-05-10T09:23:31;2.40;;;1.00;;
76393;SDS011;65216;51.090;-115.352;2023-05-10T09:26:05;2.30;;;0.90;;
76393;SDS011;65216;51.090;-115.352;2023-05-10T09:28:33;2.50;;;1.10;;
76393;SDS011;65216;51.090;-115.352;2023-05-10T09:31:18;2.00;;;1.00;;
76393;SDS011;65216;51.090;-115.352;2023-05-10T09:33:50;2.40;;;1.00;;
76393;SDS011;65216;51.090;-115.352;2023-05-10T09:36:17;2.00;;;0.90;;
76393;SDS011;65216;51.090;-115.352;2023-05-10T09:38:51;1.80;;;0.80;;
76393;SDS011;65216;51.090;-115.352;2023-05-10T09:41:21;1.80;;;0.90;;
76393;SDS011;65216;51.090;-115.352;2023-05-10T09:43:49;2.30;;;1.00;;
76393;SDS011;65216;51.090;-115.352;2023-05-10T09:46:22;2.50;;;1.00;;
76393;SDS011;65216;51.090;-115.352;2023-05-10T09:48:52;1.80;;;0.70;;
76393;SDS011;65216;51.090;-115.352;2023-05-10T09:51:22;1.80;;;0.80;;
76393;SDS011;65216;51.090;-115.352;2023-05-10T09:54:13;1.70;;;0.70;;
76393;SDS011;65216;51.090;-115.352;2023-05-10T09:56:42;1.30;;;0.70;;
76393;SDS011;65216;51.090;-115.352;2023-05-10T09:59:12;1.80;;;0.70;;
76393;SDS011;65216;51.090;-115.352;2023-05-10T10:01:39;1.30;;;0.70;;
76393;SDS011;65216;51.090;-115.352;2023-05-10T10:04:08;1.60;;;0.70;;
76393;SDS011;65216;51.090;-115.352;2023-05-10T10:06:39;1.80;;;0.70;;
76393;SDS011;65216;51.090;-115.352;2023-05-10T10:09:07;2.20;;;0.80;;
76393;SDS011;65216;51.090;-115.352;2023-05-10T10:11:36;2.20;;;0.70;;
76393;SDS011;65216;51.090;-115.352;2023-05-10T10:16:36;1.60;;;0.80;;
76393;SDS011;65216;51.090;-115.352;2023-05-10T10:19:03;1.40;;;0.70;;
76393;SDS011;65216;51.090;-115.352;2023-05-10T10:21:31;1.50;;;0.80;;
76393;SDS011;65216;51.090;-115.352;2023-05-10T10:23:58;1.50;;;0.70;;
76393;SDS011;65216;51.090;-115.352;2023-05-10T10:29:12;1.40;;;0.70;;
76393;SDS011;65216;51.090;-115.352;2023-05-10T10:35:02;1.80;;;0.60;;
76393;SDS011;65216;51.090;-115.352;2023-05-10T10:37:46;1.30;;;0.50;;
76393;SDS011;65216;51.090;-115.352;2023-05-10T10:40:27;1.00;;;0.60;;
76393;SDS011;65216;51.090;-115.352;2023-05-10T10:43:28;1.80;;;0.70;;
76393;SDS011;65216;51.090;-115.352;2023-05-10T10:46:15;2.00;;;0.80;;
76393;SDS011;65216;51.090;-115.352;2023-05-10T10:49:08;1.10;;;0.50;;
76393;SDS011;65216;51.090;-115.352;2023-05-10T10:51:39;1.40;;;0.70;;
76393;SDS011;65216;51.090;-115.352;2023-05-10T10:54:10;1.50;;;0.70;;
76393;SDS011;65216;51.090;-115.352;2023-05-10T10:56:37;1.40;;;0.60;;
76393;SDS011;65216;51.090;-115.352;2023-05-10T10:59:04;0.90;;;0.50;;
76393;SDS011;65216;51.090;-115.352;2023-05-10T11:01:34;1.20;;;0.60;;
76393;SDS011;65216;51.090;-115.352;2023-05-10T11:06:33;0.80;;;0.50;;
76393;SDS011;65216;51.090;-115.352;2023-05-10T11:09:10;1.90;;;0.50;;
76393;SDS011;65216;51.090;-115.352;2023-05-10T11:11:55;1.00;;;0.50;;
76393;SDS011;65216;51.090;-115.352;2023-05-10T11:14:22;1.40;;;0.80;;
76393;SDS011;65216;51.090;-115.352;2023-05-10T11:16:49;0.90;;;0.50;;
76393;SDS011;65216;51.090;-115.352;2023-05-10T11:19:17;1.30;;;0.70;;
76393;SDS011;65216;51.090;-115.352;2023-05-10T11:24:56;1.00;;;0.50;;
76393;SDS011;65216;51.090;-115.352;2023-05-10T11:27:28;0.80;;;0.40;;
76393;SDS011;65216;51.090;-115.352;2023-05-10T11:29:55;1.90;;;0.70;;
76393;SDS011;65216;51.090;-115.352;2023-05-10T11:32:22;0.40;;;0.40;;
76393;SDS011;65216;51.090;-115.352;2023-05-10T11:34:54;1.20;;;0.60;;
76393;SDS011;65216;51.090;-115.352;2023-05-10T11:37:27;0.90;;;0.50;;
76393;SDS011;65216;51.090;-115.352;2023-05-10T11:39:58;1.50;;;0.60;;
76393;SDS011;65216;51.090;-115.352;2023-05-10T11:42:25;1.00;;;0.60;;
76393;SDS011;65216;51.090;-115.352;2023-05-10T11:44:53;1.20;;;0.50;;
76393;SDS011;65216;51.090;-115.352;2023-05-10T11:47:20;0.40;;;0.40;;
76393;SDS011;65216;51.090;-115.352;2023-05-10T11:49:48;1.40;;;0.50;;
76393;SDS011;65216;51.090;-115.352;2023-05-10T11:52:18;1.10;;;0.40;;
76393;SDS011;65216;51.090;-115.352;2023-05-10T11:54:51;1.60;;;0.50;;
76393;SDS011;65216;51.090;-115.352;2023-05-10T11:57:20;1.20;;;0.50;;
76393;SDS011;65216;51.090;-115.352;2023-05-10T11:59:56;1.10;;;0.50;;
76393;SDS011;65216;51.090;-115.352;2023-05-10T12:02:24;1.10;;;0.40;;
76393;SDS011;65216;51.090;-115.352;2023-05-10T12:04:55;1.90;;;0.70;;
76393;SDS011;65216;51.090;-115.352;2023-05-10T12:07:22;1.20;;;0.60;;
76393;SDS011;65216;51.090;-115.352;2023-05-10T12:10:14;1.80;;;0.70;;
76393;SDS011;65216;51.090;-115.352;2023-05-10T12:12:44;0.90;;;0.40;;
76393;SDS011;65216;51.090;-115.352;2023-05-10T12:15:22;1.80;;;0.50;;
76393;SDS011;65216;51.090;-115.352;2023-05-10T12:17:50;1.30;;;0.60;;
76393;SDS011;65216;51.090;-115.352;2023-05-10T12:20:22;1.20;;;0.60;;
76393;SDS011;65216;51.090;-115.352;2023-05-10T12:22:56;1.20;;;0.70;;
76393;SDS011;65216;51.090;-115.352;2023-05-10T12:25:36;1.40;;;0.60;;
76393;SDS011;65216;51.090;-115.352;2023-05-10T12:28:05;1.20;;;0.60;;
76393;SDS011;65216;51.090;-115.352;2023-05-10T12:30:35;1.50;;;0.50;;
76393;SDS011;65216;51.090;-115.352;2023-05-10T12:33:09;1.20;;;0.60;;
76393;SDS011;65216;51.090;-115.352;2023-05-10T12:35:49;1.70;;;0.60;;
76393;SDS011;65216;51.090;-115.352;2023-05-10T12:41:03;0.90;;;0.50;;
76393;SDS011;65216;51.090;-115.352;2023-05-10T12:43:32;1.30;;;0.60;;
76393;SDS011;65216;51.090;-115.352;2023-05-10T12:46:10;2.30;;;0.60;;
76393;SDS011;65216;51.090;-115.352;2023-05-10T12:48:39;2.40;;;0.50;;
76393;SDS011;65216;51.090;-115.352;2023-05-10T12:51:08;1.10;;;0.50;;
76393;SDS011;65216;51.090;-115.352;2023-05-10T12:53:38;0.80;;;0.30;;
76393;SDS011;65216;51.090;-115.352;2023-05-10T12:56:08;0.70;;;0.40;;
76393;SDS011;65216;51.090;-115.352;2023-05-10T12:58:35;1.40;;;0.60;;
76393;SDS011;65216;51.090;-115.352;2023-05-10T13:01:04;0.60;;;0.50;;
76393;SDS011;65216;51.090;-115.352;2023-05-10T13:03:31;1.00;;;0.50;;
76393;SDS011;65216;51.090;-115.352;2023-05-10T13:05:58;1.20;;;0.60;;
76393;SDS011;65216;51.090;-115.352;2023-05-10T13:08:25;0.70;;;0.50;;
76393;SDS011;65216;51.090;-115.352;2023-05-10T13:10:55;1.10;;;0.50;;
76393;SDS011;65216;51.090;-115.352;2023-05-10T13:13:26;0.60;;;0.40;;
76393;SDS011;65216;51.090;-115.352;2023-05-10T13:15:56;0.90;;;0.50;;
76393;SDS011;65216;51.090;-115.352;2023-05-10T13:18:23;1.10;;;0.40;;
76393;SDS011;65216;51.090;-115.352;2023-05-10T13:20:50;0.50;;;0.30;;
76393;SDS011;65216;51.090;-115.352;2023-05-10T13:23:20;1.30;;;0.50;;
76393;SDS011;65216;51.090;-115.352;2023-05-10T13:25:50;1.00;;;0.50;;
76393;SDS011;65216;51.090;-115.352;2023-05-10T13:28:17;1.20;;;0.50;;
76393;SDS011;65216;51.090;-115.352;2023-05-10T13:30:47;1.30;;;0.60;;
76393;SDS011;65216;51.090;-115.352;2023-05-10T13:33:14;2.10;;;0.60;;
76393;SDS011;65216;51.090;-115.352;2023-05-10T13:35:40;1.10;;;0.60;;
76393;SDS011;65216;51.090;-115.352;2023-05-10T13:38:10;2.00;;;0.70;;
76393;SDS011;65216;51.090;-115.352;2023-05-10T13:40:37;2.20;;;0.60;;
76393;SDS011;65216;51.090;-115.352;2023-05-10T13:43:06;1.40;;;0.60;;
76393;SDS011;65216;51.090;-115.352;2023-05-10T13:45:32;1.40;;;0.50;;
76393;SDS011;65216;51.090;-115.352;2023-05-10T13:47:59;1.30;;;0.60;;
76393;SDS011;65216;51.090;-115.352;2023-05-10T13:50:30;1.20;;;0.70;;
76393;SDS011;65216;51.090;-115.352;2023-05-10T13:52:57;0.90;;;0.50;;
76393;SDS011;65216;51.090;-115.352;2023-05-10T13:55:24;1.10;;;0.60;;
76393;SDS011;65216;51.090;-115.352;2023-05-10T13:57:50;1.50;;;0.60;;
76393;SDS011;65216;51.090;-115.352;2023-05-10T14:00:18;1.40;;;0.60;;
76393;SDS011;65216;51.090;-115.352;2023-05-10T14:02:45;1.20;;;0.50;;
76393;SDS011;65216;51.090;-115.352;2023-05-10T14:05:12;1.00;;;0.50;;
76393;SDS011;65216;51.090;-115.352;2023-05-10T14:07:39;1.70;;;0.60;;
76393;SDS011;65216;51.090;-115.352;2023-05-10T14:10:09;1.20;;;0.60;;
76393;SDS011;65216;51.090;-115.352;2023-05-10T14:12:36;1.70;;;0.60;;
76393;SDS011;65216;51.090;-115.352;2023-05-10T14:15:03;3.50;;;0.80;;
76393;SDS011;65216;51.090;-115.352;2023-05-10T14:17:38;1.30;;;0.60;;
76393;SDS011;65216;51.090;-115.352;2023-05-10T14:20:06;1.10;;;0.50;;
76393;SDS011;65216;51.090;-115.352;2023-05-10T14:25:54;2.00;;;0.60;;
76393;SDS011;65216;51.090;-115.352;2023-05-10T14:28:41;1.40;;;0.60;;
76393;SDS011;65216;51.090;-115.352;2023-05-10T14:31:31;0.80;;;0.50;;
76393;SDS011;65216;51.090;-115.352;2023-05-10T14:33:58;1.60;;;0.50;;
76393;SDS011;65216;51.090;-115.352;2023-05-10T14:36:25;4.00;;;0.70;;
76393;SDS011;65216;51.090;-115.352;2023-05-10T14:39:02;3.40;;;0.70;;
76393;SDS011;65216;51.090;-115.352;2023-05-10T14:45:12;5.50;;;1.20;;
76393;SDS011;65216;51.090;-115.352;2023-05-10T14:47:49;4.00;;;0.90;;
76393;SDS011;65216;51.090;-115.352;2023-05-10T14:50:16;3.30;;;0.80;;
76393;SDS011;65216;51.090;-115.352;2023-05-10T14:52:49;2.00;;;0.70;;
76393;SDS011;65216;51.090;-115.352;2023-05-10T14:55:19;2.60;;;0.80;;
76393;SDS011;65216;51.090;-115.352;2023-05-10T14:57:48;2.80;;;0.70;;
76393;SDS011;65216;51.090;-115.352;2023-05-10T15:00:16;4.80;;;0.80;;
76393;SDS011;65216;51.090;-115.352;2023-05-10T15:02:45;4.00;;;0.80;;
76393;SDS011;65216;51.090;-115.352;2023-05-10T15:05:15;3.70;;;0.90;;
76393;SDS011;65216;51.090;-115.352;2023-05-10T15:07:43;6.10;;;1.00;;
76393;SDS011;65216;51.090;-115.352;2023-05-10T15:10:10;3.30;;;0.70;;